Time;durP1;ratioP1;P1;durP2;ratioP2;P2;SDS_P1;SDS_P2;PMS_P1;PMS_P2;Temp;Humidity;BMP_temperature;BMP_pressure;BME280_temperature;BME280_humidity;BME280_pressure;Samples;Min_cycle;Max_cycle;Signal;HPM_P1;HPM_P2
2021/10/27 00:00:36;;;;;;;7.50;4.07;;;9.80;83.40;;;;;;5046580;28;20474;-41
2021/10/27 00:03:03;;;;;;;4.90;3.97;;;9.80;83.30;;;;;;5038568;28;20470;-41
2021/10/27 00:05:30;;;;;;;8.27;3.67;;;9.80;83.30;;;;;;5044419;28;20445;-40
2021/10/27 00:07:57;;;;;;;4.60;3.90;;;9.80;83.30;;;;;;5043998;28;20454;-40
2021/10/27 00:10:24;;;;;;;7.43;4.00;;;9.80;83.40;;;;;;5047187;28;20468;-41
2021/10/27 00:12:51;;;;;;;4.83;3.93;;;9.80;83.40;;;;;;5047023;28;20524;-41
2021/10/27 00:15:18;;;;;;;4.13;3.73;;;9.70;83.40;;;;;;5043481;28;20462;-41
2021/10/27 00:17:45;;;;;;;7.87;5.07;;;9.70;83.50;;;;;;5043393;28;20458;-40
2021/10/27 00:20:12;;;;;;;7.13;4.77;;;9.70;83.50;;;;;;5042767;28;20455;-40
2021/10/27 00:22:39;;;;;;;7.83;5.23;;;9.70;83.60;;;;;;5045188;28;21035;-40
2021/10/27 00:25:08;;;;;;;5.70;5.10;;;9.70;83.50;;;;;;5044184;28;21278;-41
2021/10/27 00:27:35;;;;;;;6.60;4.73;;;9.60;83.50;;;;;;5021790;28;20823;-40
2021/10/27 00:30:03;;;;;;;7.23;4.87;;;9.70;83.50;;;;;;5042513;28;20462;-41
2021/10/27 00:32:30;;;;;;;8.03;4.40;;;9.70;83.30;;;;;;5043791;28;20458;-41
2021/10/27 00:34:56;;;;;;;7.93;5.10;;;9.70;83.10;;;;;;5047343;28;20458;-41
2021/10/27 00:37:23;;;;;;;5.47;3.93;;;9.70;83.00;;;;;;5042915;28;20462;-40
2021/10/27 00:39:50;;;;;;;5.80;4.70;;;9.60;83.10;;;;;;5027333;28;20485;-40
2021/10/27 00:42:17;;;;;;;8.20;5.00;;;9.60;83.20;;;;;;5042777;28;20569;-40
2021/10/27 00:44:44;;;;;;;4.83;4.43;;;9.60;83.30;;;;;;5044909;28;20443;-40
2021/10/27 00:47:14;;;;;;;7.87;5.23;;;9.50;83.40;;;;;;5027786;28;20801;-41
2021/10/27 00:49:42;;;;;;;5.93;4.13;;;9.50;83.10;;;;;;5043893;28;20472;-41
2021/10/27 00:52:12;;;;;;;6.57;5.03;;;9.50;83.10;;;;;;5044505;28;20465;-41
2021/10/27 00:54:44;;;;;;;7.20;4.63;;;9.40;83.20;;;;;;5045934;28;20482;-41
2021/10/27 00:57:15;;;;;;;5.90;4.60;;;9.40;83.40;;;;;;5045819;28;20458;-41
2021/10/27 00:59:44;;;;;;;6.07;4.83;;;9.50;83.20;;;;;;5047858;28;20459;-40
2021/10/27 01:02:13;;;;;;;5.97;4.47;;;9.40;83.20;;;;;;5021904;28;20486;-41
2021/10/27 01:04:40;;;;;;;4.60;4.10;;;9.40;83.10;;;;;;5040432;28;21061;-41
2021/10/27 01:07:08;;;;;;;10.80;5.20;;;9.40;83.20;;;;;;5041540;28;20496;-41
2021/10/27 01:09:36;;;;;;;5.80;5.20;;;9.40;83.20;;;;;;5043501;28;20470;-41
2021/10/27 01:12:04;;;;;;;5.10;3.83;;;9.40;83.10;;;;;;5046890;28;20850;-41
2021/10/27 01:14:42;;;;;;;8.17;4.83;;;9.40;83.20;;;;;;5028927;28;20500;-41
2021/10/27 01:17:13;;;;;;;5.50;5.00;;;9.30;83.30;;;;;;5045367;28;20947;-41
2021/10/27 01:19:46;;;;;;;5.33;4.83;;;9.30;83.60;;;;;;5049000;28;20463;-41
2021/10/27 01:22:17;;;;;;;6.40;4.83;;;9.30;83.60;;;;;;5045284;28;20864;-41
2021/10/27 01:24:44;;;;;;;6.30;5.30;;;9.20;83.80;;;;;;5050031;28;20454;-41
2021/10/27 01:27:12;;;;;;;6.60;5.67;;;9.20;83.90;;;;;;5045998;28;20460;-40
2021/10/27 01:29:39;;;;;;;8.40;6.50;;;9.20;84.00;;;;;;5052248;28;20529;-41
2021/10/27 01:32:07;;;;;;;6.50;4.93;;;9.30;84.10;;;;;;5047074;28;20834;-41
2021/10/27 01:34:36;;;;;;;7.73;5.70;;;9.30;84.10;;;;;;5047215;28;20466;-41
2021/10/27 01:37:03;;;;;;;7.80;5.70;;;9.30;84.30;;;;;;5048430;28;20466;-41
2021/10/27 01:39:30;;;;;;;9.30;7.17;;;9.30;84.40;;;;;;5045704;28;20457;-41
2021/10/27 01:41:56;;;;;;;8.93;5.90;;;9.40;84.60;;;;;;5032378;28;20490;-41
2021/10/27 01:44:23;;;;;;;7.73;6.13;;;9.40;84.60;;;;;;5040225;28;20454;-41
2021/10/27 01:46:50;;;;;;;8.50;6.73;;;9.40;84.80;;;;;;5047143;28;20813;-41
2021/10/27 01:49:17;;;;;;;8.60;5.67;;;9.40;84.70;;;;;;5043955;28;20456;-41
2021/10/27 01:51:47;;;;;;;8.17;5.80;;;9.50;84.70;;;;;;5048274;28;20955;-41
2021/10/27 01:54:14;;;;;;;6.83;5.93;;;9.40;84.80;;;;;;5045866;28;21118;-41
2021/10/27 01:56:41;;;;;;;5.47;4.77;;;9.40;84.90;;;;;;5048751;28;20996;-42
2021/10/27 01:59:07;;;;;;;6.00;5.20;;;9.40;85.00;;;;;;5044839;28;20516;-41
2021/10/27 02:01:34;;;;;;;6.60;5.70;;;9.50;85.10;;;;;;5029255;28;20483;-43
2021/10/27 02:04:01;;;;;;;8.83;5.70;;;9.50;85.10;;;;;;5044029;28;20475;-43
2021/10/27 02:06:28;;;;;;;8.97;5.60;;;9.50;85.10;;;;;;5030750;28;20964;-43
2021/10/27 02:08:54;;;;;;;6.07;4.87;;;9.50;85.10;;;;;;5029688;28;20481;-43
2021/10/27 02:11:21;;;;;;;6.80;4.40;;;9.50;85.20;;;;;;5045567;28;20463;-43
2021/10/27 02:13:52;;;;;;;5.97;4.23;;;9.50;85.10;;;;;;5044780;28;20473;-43
2021/10/27 02:16:19;;;;;;;6.40;4.23;;;9.60;85.00;;;;;;5047127;28;20542;-43
2021/10/27 02:18:45;;;;;;;8.13;4.90;;;9.70;84.50;;;;;;5043953;28;20471;-43
2021/10/27 02:21:12;;;;;;;6.40;4.40;;;9.70;84.50;;;;;;5047840;28;20490;-43
2021/10/27 02:23:39;;;;;;;5.30;4.20;;;9.70;84.30;;;;;;5048892;28;20508;-43
2021/10/27 02:26:06;;;;;;;5.50;4.30;;;9.60;84.40;;;;;;5046724;28;20455;-43
2021/10/27 02:28:33;;;;;;;7.37;6.03;;;9.70;84.30;;;;;;5048846;28;20494;-43
2021/10/27 02:31:00;;;;;;;5.97;4.20;;;9.70;84.30;;;;;;5049221;28;20459;-43
2021/10/27 02:33:27;;;;;;;3.77;3.20;;;9.70;84.20;;;;;;5046721;28;20455;-43
2021/10/27 02:35:54;;;;;;;4.13;3.30;;;9.70;84.00;;;;;;5046326;28;20450;-43
2021/10/27 02:38:41;;;;;;;8.80;4.20;;;9.70;84.00;;;;;;5043625;28;20494;-43
2021/10/27 02:41:11;;;;;;;5.53;4.67;;;9.60;84.10;;;;;;5042866;28;20506;-42
2021/10/27 02:43:38;;;;;;;7.53;4.60;;;9.60;84.20;;;;;;5026849;28;20446;-42
2021/10/27 02:46:05;;;;;;;8.40;4.40;;;9.60;84.20;;;;;;5041679;28;20486;-42
2021/10/27 02:48:32;;;;;;;8.60;5.80;;;9.70;84.30;;;;;;5046695;28;20482;-42
2021/10/27 02:50:59;;;;;;;9.07;5.43;;;9.70;84.20;;;;;;5044224;28;20541;-42
2021/10/27 02:53:26;;;;;;;7.77;5.80;;;9.70;84.40;;;;;;5033626;28;20458;-42
2021/10/27 02:55:53;;;;;;;5.50;4.77;;;9.70;84.40;;;;;;5043731;28;20445;-42
2021/10/27 02:58:19;;;;;;;7.57;5.57;;;9.70;84.40;;;;;;5047166;28;20967;-42
2021/10/27 03:00:47;;;;;;;8.30;5.97;;;9.70;84.50;;;;;;5044766;28;20481;-42
2021/10/27 03:03:14;;;;;;;8.67;6.23;;;9.70;84.60;;;;;;5043763;28;20524;-42
2021/10/27 03:05:41;;;;;;;11.73;7.03;;;9.70;84.70;;;;;;5037795;28;20495;-42
2021/10/27 03:08:08;;;;;;;7.30;6.10;;;9.70;84.80;;;;;;5026383;28;20462;-42
2021/10/27 03:10:35;;;;;;;8.57;5.83;;;9.70;84.80;;;;;;5029704;28;20448;-42
2021/10/27 03:13:01;;;;;;;10.10;5.60;;;9.70;84.90;;;;;;5023687;28;20462;-42
2021/10/27 03:15:28;;;;;;;7.33;5.30;;;9.70;84.90;;;;;;5027792;28;20459;-42
2021/10/27 03:17:55;;;;;;;9.57;5.90;;;9.70;84.90;;;;;;5046664;28;20479;-42
2021/10/27 03:20:21;;;;;;;7.73;5.83;;;9.70;85.00;;;;;;5046213;28;20454;-42
2021/10/27 03:22:48;;;;;;;7.47;5.67;;;9.70;85.00;;;;;;5042639;28;20490;-42
2021/10/27 03:25:15;;;;;;;9.53;6.60;;;9.70;85.10;;;;;;5040870;28;20459;-42
2021/10/27 03:27:42;;;;;;;10.30;7.23;;;9.70;85.10;;;;;;5038630;28;20457;-42
2021/10/27 03:30:09;;;;;;;7.13;5.73;;;9.80;85.10;;;;;;5042293;28;20834;-42
2021/10/27 03:32:36;;;;;;;6.03;5.10;;;9.80;85.00;;;;;;5044612;28;20462;-42
2021/10/27 03:35:03;;;;;;;7.73;5.73;;;9.80;85.00;;;;;;5044587;28;20475;-42
2021/10/27 03:37:30;;;;;;;6.40;5.70;;;9.80;84.90;;;;;;5042403;28;20465;-42
2021/10/27 03:39:57;;;;;;;7.33;6.00;;;9.80;85.00;;;;;;5005950;28;20519;-41
2021/10/27 03:42:24;;;;;;;5.87;5.17;;;9.80;85.10;;;;;;5045256;28;20495;-41
2021/10/27 03:44:50;;;;;;;7.27;5.77;;;9.80;85.10;;;;;;5028634;28;20821;-41
2021/10/27 03:47:17;;;;;;;6.30;5.03;;;9.80;85.10;;;;;;5040235;28;20450;-41
2021/10/27 03:49:44;;;;;;;7.60;5.07;;;9.80;85.00;;;;;;5044743;28;20876;-41
2021/10/27 03:52:11;;;;;;;8.80;6.27;;;9.90;85.10;;;;;;5042364;28;20463;-41
2021/10/27 03:54:37;;;;;;;6.60;5.60;;;10.00;84.80;;;;;;5045292;28;20509;-42
2021/10/27 03:57:04;;;;;;;5.43;4.93;;;10.00;84.50;;;;;;5021074;28;20464;-42
2021/10/27 03:59:31;;;;;;;7.10;5.30;;;10.00;84.70;;;;;;5020013;28;20554;-42
2021/10/27 04:01:58;;;;;;;7.70;5.77;;;10.00;84.70;;;;;;5044152;28;20903;-42
2021/10/27 04:04:25;;;;;;;6.80;5.40;;;10.00;84.90;;;;;;5025399;28;20466;-42
2021/10/27 04:06:52;;;;;;;7.60;5.43;;;9.90;84.90;;;;;;5041026;28;20462;-42
2021/10/27 04:09:19;;;;;;;6.10;5.57;;;10.00;84.90;;;;;;5023374;28;20461;-42
2021/10/27 04:11:46;;;;;;;6.23;5.63;;;10.00;84.90;;;;;;5020385;28;20471;-42
2021/10/27 04:14:13;;;;;;;7.77;5.60;;;10.00;84.80;;;;;;5041310;28;20451;-42
2021/10/27 04:16:39;;;;;;;7.40;5.90;;;9.90;85.00;;;;;;5039757;28;20451;-42
2021/10/27 04:19:06;;;;;;;5.77;5.17;;;9.90;85.10;;;;;;5042291;28;20525;-42
2021/10/27 04:21:33;;;;;;;8.20;5.87;;;9.90;85.30;;;;;;5025625;28;21119;-42
2021/10/27 04:24:00;;;;;;;9.20;5.67;;;9.90;85.30;;;;;;5044711;28;21168;-42
2021/10/27 04:26:27;;;;;;;7.80;6.07;;;9.90;85.30;;;;;;5040923;28;20454;-42
2021/10/27 04:28:53;;;;;;;6.00;5.40;;;9.90;85.40;;;;;;5030197;28;20542;-42
2021/10/27 04:31:21;;;;;;;7.43;6.70;;;9.90;85.40;;;;;;5025207;28;20446;-42
2021/10/27 04:33:49;;;;;;;11.20;8.47;;;9.90;85.50;;;;;;5041857;28;20468;-42
2021/10/27 04:36:16;;;;;;;14.83;9.73;;;9.90;85.50;;;;;;5042497;28;20461;-42
2021/10/27 04:38:43;;;;;;;11.63;7.47;;;9.90;85.50;;;;;;5043028;28;20461;-42
2021/10/27 04:41:11;;;;;;;10.60;7.00;;;9.90;85.50;;;;;;5040804;28;20505;-42
2021/10/27 04:43:38;;;;;;;13.07;7.50;;;9.90;85.50;;;;;;5048561;28;20543;-42
2021/10/27 04:46:05;;;;;;;10.43;7.17;;;9.90;85.50;;;;;;5044673;28;20447;-42
2021/10/27 04:48:32;;;;;;;9.77;7.27;;;9.90;85.50;;;;;;5049849;28;20480;-42
2021/10/27 04:50:58;;;;;;;9.87;6.47;;;9.90;85.60;;;;;;5047536;28;20462;-42
2021/10/27 04:53:25;;;;;;;10.23;6.73;;;10.00;85.60;;;;;;5045815;28;20818;-42
2021/10/27 04:55:53;;;;;;;6.57;5.50;;;10.00;85.60;;;;;;5045029;28;20495;-42
2021/10/27 04:58:21;;;;;;;9.53;5.83;;;10.00;85.60;;;;;;5049428;28;20998;-42
2021/10/27 05:00:48;;;;;;;7.13;5.63;;;10.00;85.70;;;;;;5041655;28;21019;-42
2021/10/27 05:03:15;;;;;;;10.27;5.67;;;10.00;85.70;;;;;;5048868;28;20722;-42
2021/10/27 05:05:50;;;;;;;6.03;5.10;;;10.00;85.70;;;;;;5043542;28;20585;-42
2021/10/27 05:08:21;;;;;;;7.00;6.30;;;10.00;85.70;;;;;;5041479;28;20459;-42
2021/10/27 05:10:50;;;;;;;6.40;5.20;;;10.00;85.70;;;;;;5041831;28;20481;-42
2021/10/27 05:13:19;;;;;;;8.53;7.33;;;10.00;85.70;;;;;;5043058;28;20474;-42
2021/10/27 05:15:47;;;;;;;6.50;5.83;;;10.00;85.80;;;;;;5045438;28;20465;-42
2021/10/27 05:18:15;;;;;;;8.07;5.13;;;10.10;85.70;;;;;;5013864;28;21007;-42
2021/10/27 05:20:43;;;;;;;10.80;6.93;;;10.10;85.70;;;;;;5043343;28;20951;-42
2021/10/27 05:23:10;;;;;;;6.97;5.40;;;10.10;85.70;;;;;;5045039;28;20489;-42
2021/10/27 05:25:38;;;;;;;8.17;6.43;;;10.10;85.80;;;;;;5027948;28;20772;-42
2021/10/27 05:28:05;;;;;;;11.63;6.00;;;10.10;85.80;;;;;;5046734;28;20465;-42
2021/10/27 05:30:33;;;;;;;8.67;6.00;;;10.10;85.80;;;;;;5049207;28;20446;-42
2021/10/27 05:33:00;;;;;;;7.73;5.77;;;10.10;85.80;;;;;;5044296;28;20544;-42
2021/10/27 05:35:29;;;;;;;7.93;6.03;;;10.20;85.80;;;;;;5043326;28;20493;-42
2021/10/27 05:37:57;;;;;;;8.70;7.00;;;10.20;85.80;;;;;;5042961;28;20549;-42
2021/10/27 05:40:25;;;;;;;8.17;5.63;;;10.20;85.70;;;;;;5028048;28;20465;-42
2021/10/27 05:42:52;;;;;;;9.93;6.20;;;10.20;85.80;;;;;;5042352;28;20493;-42
2021/10/27 05:45:22;;;;;;;6.40;5.43;;;10.20;85.80;;;;;;5044009;28;20443;-42
2021/10/27 05:47:52;;;;;;;8.80;6.63;;;10.20;85.80;;;;;;5039498;28;20537;-42
2021/10/27 05:50:29;;;;;;;7.00;5.70;;;10.20;85.80;;;;;;5045490;28;20518;-42
2021/10/27 05:55:42;;;;;;;12.40;6.50;;;10.20;85.80;;;;;;5047924;28;20469;-42
2021/10/27 05:58:11;;;;;;;7.23;6.00;;;10.20;85.90;;;;;;5013757;28;21013;-42
2021/10/27 06:00:38;;;;;;;8.30;6.77;;;10.20;85.90;;;;;;5042238;28;20541;-42
2021/10/27 06:03:05;;;;;;;9.90;6.10;;;10.20;85.90;;;;;;5024583;28;21017;-42
2021/10/27 06:05:32;;;;;;;9.17;6.50;;;10.20;85.90;;;;;;5023875;28;20456;-42
2021/10/27 06:07:59;;;;;;;9.80;7.80;;;10.20;85.90;;;;;;5039830;28;20459;-42
2021/10/27 06:10:27;;;;;;;10.33;7.43;;;10.20;85.90;;;;;;5040275;28;20447;-42
2021/10/27 06:12:58;;;;;;;9.47;7.10;;;10.20;86.00;;;;;;5037246;28;20485;-42
2021/10/27 06:15:25;;;;;;;12.03;6.33;;;10.20;85.90;;;;;;5045950;28;20446;-42
2021/10/27 06:17:52;;;;;;;8.00;6.00;;;10.20;85.90;;;;;;5038998;28;20458;-42
2021/10/27 06:20:19;;;;;;;7.87;6.43;;;10.20;86.00;;;;;;5038118;28;20469;-42
2021/10/27 06:22:46;;;;;;;8.10;5.47;;;10.20;86.00;;;;;;5040796;28;20498;-42
2021/10/27 06:25:13;;;;;;;13.60;8.27;;;10.20;86.10;;;;;;5044829;28;20832;-42
2021/10/27 06:27:45;;;;;;;14.50;7.47;;;10.20;86.20;;;;;;5021496;28;20458;-42
2021/10/27 06:32:55;;;;;;;11.63;7.07;;;10.20;86.20;;;;;;5044552;28;20466;-42
2021/10/27 06:35:27;;;;;;;9.57;7.43;;;10.20;86.20;;;;;;5007372;28;1116944;-42
2021/10/27 06:48:52;;;;;;;16.83;7.90;;;10.40;86.10;;;;;;5040876;28;20780;-42
2021/10/27 06:51:20;;;;;;;13.10;7.63;;;10.50;86.10;;;;;;5042555;28;20466;-42
2021/10/27 06:53:48;;;;;;;9.00;6.10;;;10.50;86.10;;;;;;5041745;28;20936;-42
2021/10/27 06:56:17;;;;;;;14.23;6.60;;;10.50;86.10;;;;;;5027118;28;20454;-42
2021/10/27 07:06:58;;;;;;;15.77;7.77;;;10.50;86.70;;;;;;5041073;28;20457;-42
2021/10/27 07:15:08;;;;;;;17.03;7.10;;;10.60;86.80;;;;;;5043090;28;20462;-42
2021/10/27 07:17:35;;;;;;;11.47;6.10;;;10.60;86.90;;;;;;5021576;28;20983;-42
2021/10/27 07:20:07;;;;;;;16.13;7.07;;;10.70;86.90;;;;;;5042454;28;20495;-42
2021/10/27 07:22:35;;;;;;;15.00;7.40;;;10.70;86.90;;;;;;5045655;28;20493;-42
2021/10/27 07:25:03;;;;;;;13.07;7.10;;;10.70;86.90;;;;;;5043290;28;20550;-42
2021/10/27 07:27:31;;;;;;;8.17;6.13;;;10.80;86.90;;;;;;5041434;28;20466;-42
2021/10/27 07:29:57;;;;;;;11.37;6.97;;;10.80;86.90;;;;;;5040929;28;20462;-42
2021/10/27 07:32:27;;;;;;;10.90;6.73;;;10.90;86.90;;;;;;5042845;28;20466;-42
2021/10/27 07:35:14;;;;;;;16.23;7.10;;;10.90;86.80;;;;;;5044412;28;20477;-42
2021/10/27 07:40:43;;;;;;;12.23;7.07;;;11.00;86.30;;;;;;5039251;28;20836;-42
2021/10/27 07:43:24;;;;;;;15.40;8.27;;;11.00;86.50;;;;;;5043545;28;20478;-42
2021/10/27 07:45:53;;;;;;;10.17;7.60;;;11.00;86.60;;;;;;5039000;28;20993;-42
2021/10/27 07:48:20;;;;;;;11.70;7.20;;;11.20;86.10;;;;;;5041093;28;20959;-42
2021/10/27 07:50:47;;;;;;;9.93;7.63;;;11.20;86.10;;;;;;5028681;28;20458;-42
2021/10/27 07:53:15;;;;;;;13.23;7.40;;;11.20;86.00;;;;;;5020522;28;20991;-42
2021/10/27 07:55:44;;;;;;;9.70;6.70;;;11.20;86.10;;;;;;5044646;28;20458;-42
2021/10/27 07:58:13;;;;;;;11.40;7.57;;;11.30;86.00;;;;;;5043028;28;20463;-42
2021/10/27 08:00:40;;;;;;;10.73;7.13;;;11.30;86.00;;;;;;5040391;28;20473;-42
2021/10/27 08:03:07;;;;;;;9.57;7.57;;;11.30;85.90;;;;;;5038057;28;20498;-42
2021/10/27 08:05:40;;;;;;;19.73;8.80;;;11.30;86.10;;;;;;5041025;28;20450;-42
2021/10/27 08:08:13;;;;;;;11.50;8.00;;;11.40;86.10;;;;;;5040839;28;20459;-42
2021/10/27 08:10:41;;;;;;;19.97;8.10;;;11.40;85.90;;;;;;5042103;28;20458;-41
2021/10/27 08:13:10;;;;;;;9.60;7.10;;;11.40;85.80;;;;;;5043191;28;20486;-41
2021/10/27 08:15:41;;;;;;;11.00;7.90;;;11.40;85.80;;;;;;5042901;28;20550;-41
2021/10/27 08:18:10;;;;;;;15.97;8.20;;;11.40;85.70;;;;;;5036655;28;20455;-42
2021/10/27 08:20:37;;;;;;;12.80;8.17;;;11.40;85.80;;;;;;5017696;28;20948;-42
2021/10/27 08:23:07;;;;;;;11.77;7.53;;;11.50;85.70;;;;;;5043244;28;21064;-42
2021/10/27 08:25:45;;;;;;;12.83;8.10;;;11.50;85.50;;;;;;5043353;28;20508;-42
2021/10/27 08:28:15;;;;;;;11.20;7.70;;;11.50;85.50;;;;;;5024841;28;20463;-42
2021/10/27 08:33:41;;;;;;;10.27;7.43;;;11.60;85.40;;;;;;5041821;28;20468;-42
2021/10/27 08:36:09;;;;;;;13.90;8.00;;;11.60;85.50;;;;;;5037633;28;20964;-42
2021/10/27 08:38:36;;;;;;;12.43;7.33;;;11.60;85.50;;;;;;5042540;28;20455;-41
2021/10/27 08:41:03;;;;;;;12.07;8.13;;;11.60;85.50;;;;;;5045293;28;20954;-41
2021/10/27 08:43:31;;;;;;;12.63;8.30;;;11.70;85.40;;;;;;5028102;28;20489;-41
2021/10/27 08:46:01;;;;;;;12.50;9.10;;;11.70;85.40;;;;;;5038637;28;21049;-41
2021/10/27 08:48:33;;;;;;;14.00;8.37;;;11.80;85.30;;;;;;5024707;28;21072;-41
2021/10/27 08:51:05;;;;;;;18.30;8.17;;;11.80;85.20;;;;;;5039771;28;20457;-42
2021/10/27 08:53:34;;;;;;;8.77;7.33;;;11.90;85.10;;;;;;5044213;28;20459;-42
2021/10/27 08:56:04;;;;;;;11.43;8.70;;;12.00;84.90;;;;;;5026482;28;20450;-42
2021/10/27 08:58:40;;;;;;;14.33;8.83;;;12.00;84.70;;;;;;5041137;28;20446;-42
2021/10/27 09:01:19;;;;;;;14.20;9.60;;;12.10;84.60;;;;;;5035927;28;21012;-42
2021/10/27 09:04:53;;;;;;;11.90;8.40;;;12.20;84.50;;;;;;5038598;28;20506;-42
2021/10/27 09:07:15;;;;;;;14.73;9.37;;;12.30;84.20;;;;;;5029416;28;20462;-42
2021/10/27 09:10:00;;;;;;;;;;;;;;;;;;;;;
2021/10/27 09:15:50;;;;;;;16.10;9.70;;;12.60;83.00;;;;;;5043481;28;20551;-42
2021/10/27 09:39:03;;;;;;;10.83;8.33;;;13.20;82.10;;;;;;5044155;28;20470;-42
2021/10/27 10:06:51;;;;;;;14.50;8.03;;;14.00;80.20;;;;;;5047464;28;20524;-41
2021/10/27 10:09:18;;;;;;;10.40;7.30;;;14.00;80.30;;;;;;5047307;28;20489;-42
2021/10/27 10:11:46;;;;;;;11.20;7.77;;;14.00;80.30;;;;;;5044099;28;20466;-42
2021/10/27 10:14:13;;;;;;;13.07;9.13;;;14.10;80.50;;;;;;5045422;28;20451;-42
2021/10/27 10:16:50;;;;;;;12.40;7.90;;;14.10;80.60;;;;;;5042929;28;20466;-42
2021/10/27 10:19:19;;;;;;;10.20;8.93;;;14.10;80.60;;;;;;5038615;28;20809;-42
2021/10/27 10:21:49;;;;;;;9.60;7.80;;;14.20;80.30;;;;;;5022166;28;20469;-42
2021/10/27 10:24:16;;;;;;;8.63;7.07;;;14.30;80.10;;;;;;5040283;28;20493;-42
2021/10/27 10:26:46;;;;;;;9.83;6.97;;;14.30;80.10;;;;;;5040076;28;20477;-42
2021/10/27 10:29:35;;;;;;;12.67;7.80;;;14.50;80.00;;;;;;5045243;28;20447;-42
2021/10/27 10:34:54;;;;;;;14.47;7.57;;;14.80;79.30;;;;;;5039287;28;20957;-42
2021/10/27 10:37:39;;;;;;;11.37;7.60;;;15.00;78.70;;;;;;5040708;28;20511;-42
2021/10/27 10:41:22;;;;;;;9.80;6.77;;;15.10;78.00;;;;;;5038922;28;20466;-43
2021/10/27 11:37:29;;;;;;;10.57;5.97;;;15.70;76.30;;;;;;5043287;28;20445;-42
2021/10/27 11:40:08;;;;;;;8.10;6.20;;;15.70;76.80;;;;;;5039552;28;20452;-42
2021/10/27 11:45:21;;;;;;;7.10;5.80;;;15.60;76.60;;;;;;5036619;28;20527;-42
2021/10/27 11:47:52;;;;;;;14.87;6.30;;;15.70;76.50;;;;;;5038133;28;20450;-42
2021/10/27 11:50:21;;;;;;;7.73;5.30;;;15.60;76.80;;;;;;5041059;28;20960;-42
2021/10/27 11:52:52;;;;;;;5.13;4.63;;;15.70;76.50;;;;;;5024039;28;20469;-42
2021/10/27 11:55:21;;;;;;;6.13;5.13;;;15.60;76.60;;;;;;5041471;28;20858;-42
2021/10/27 11:57:53;;;;;;;6.20;4.90;;;15.60;76.60;;;;;;5042709;28;20463;-42
2021/10/27 12:00:37;;;;;;;5.17;4.17;;;15.70;76.50;;;;;;5027176;28;20508;-42
2021/10/27 12:03:26;;;;;;;5.60;4.50;;;15.70;76.70;;;;;;5040237;28;20469;-42
2021/10/27 12:05:59;;;;;;;5.80;5.30;;;15.70;76.80;;;;;;5038344;28;20459;-42
2021/10/27 12:08:44;;;;;;;4.53;4.13;;;15.80;76.70;;;;;;5035549;28;20454;-42
2021/10/27 12:11:30;;;;;;;5.67;3.97;;;15.80;76.50;;;;;;5039217;28;20498;-42
2021/10/27 12:14:17;;;;;;;8.87;4.43;;;15.90;76.30;;;;;;5036513;28;20469;-43
2021/10/27 12:19:19;;;;;;;9.07;4.63;;;15.90;75.70;;;;;;5041134;28;20478;-42
2021/10/27 12:21:56;;;;;;;5.40;3.80;;;16.00;75.50;;;;;;5037814;28;20474;-42
2021/10/27 12:24:26;;;;;;;10.10;4.83;;;16.00;75.50;;;;;;5039074;28;21006;-41
2021/10/27 12:27:00;;;;;;;6.90;4.47;;;16.00;75.40;;;;;;5038419;28;20458;-42
2021/10/27 12:29:30;;;;;;;17.43;4.87;;;16.00;75.40;;;;;;5040628;28;20451;-42
2021/10/27 12:32:15;;;;;;;37.33;6.60;;;16.00;75.50;;;;;;5040381;28;20443;-42
2021/10/27 12:34:57;;;;;;;6.63;5.13;;;16.00;75.50;;;;;;5044088;28;20478;-42
2021/10/27 12:37:46;;;;;;;13.40;5.47;;;16.00;75.30;;;;;;5023967;28;21156;-42
2021/10/27 12:40:25;;;;;;;20.53;5.60;;;16.10;75.30;;;;;;5044430;28;20451;-42
2021/10/27 12:43:00;;;;;;;13.90;5.60;;;16.10;75.20;;;;;;5040585;28;20971;-42
2021/10/27 12:45:38;;;;;;;7.33;4.50;;;16.10;75.10;;;;;;5043578;28;20503;-42
2021/10/27 12:48:08;;;;;;;7.40;4.10;;;16.10;75.10;;;;;;5044856;28;20458;-43
2021/10/27 12:50:37;;;;;;;8.57;4.00;;;16.10;75.20;;;;;;5045410;28;20476;-43
2021/10/27 12:53:07;;;;;;;4.17;3.50;;;16.10;75.20;;;;;;5026878;28;20465;-43
2021/10/27 12:55:39;;;;;;;2.53;2.33;;;16.10;75.20;;;;;;5040830;28;20473;-43
2021/10/27 12:58:13;;;;;;;3.20;2.40;;;16.20;75.00;;;;;;5039407;28;20463;-43
2021/10/27 13:03:41;;;;;;;3.10;2.20;;;16.20;74.10;;;;;;5041745;28;20478;-42
2021/10/27 13:09:25;;;;;;;3.30;2.80;;;16.40;72.70;;;;;;5044953;28;20463;-42
2021/10/27 13:30:55;;;;;;;5.20;2.40;;;16.50;73.00;;;;;;5047973;28;20465;-42
2021/10/27 13:33:23;;;;;;;2.60;2.13;;;16.40;72.80;;;;;;5045591;28;20446;-42
2021/10/27 13:35:51;;;;;;;10.97;2.80;;;16.40;73.00;;;;;;5050552;28;20549;-42
2021/10/27 13:38:21;;;;;;;3.90;3.23;;;16.40;73.20;;;;;;5028315;28;20450;-43
2021/10/27 13:40:48;;;;;;;3.07;2.20;;;16.40;73.00;;;;;;5043540;28;20878;-42
2021/10/27 13:45:59;;;;;;;5.80;3.13;;;16.40;73.10;;;;;;5050431;28;20478;-42
2021/10/27 13:48:56;;;;;;;2.83;2.37;;;16.40;73.00;;;;;;5047611;28;20451;-42
2021/10/27 14:08:05;;;;;;;2.73;2.50;;;16.40;72.80;;;;;;5046996;28;20448;-42
2021/10/27 14:13:32;;;;;;;6.97;2.73;;;16.40;72.80;;;;;;5046918;28;20450;-43
2021/10/27 15:22:11;;;;;;;7.63;5.67;;;16.00;73.70;;;;;;5038150;28;20467;-43
2021/10/27 15:25:04;;;;;;;6.83;5.70;;;16.00;73.90;;;;;;5037416;28;20483;-43
2021/10/27 15:41:30;;;;;;;6.30;4.80;;;15.90;74.20;;;;;;5041080;28;20505;-43
2021/10/27 15:44:23;;;;;;;5.53;4.07;;;15.90;74.10;;;;;;5039989;28;20463;-43
2021/10/27 15:52:23;;;;;;;6.73;5.17;;;15.90;74.50;;;;;;5040465;28;20471;-43
2021/10/27 15:54:50;;;;;;;5.80;4.97;;;15.90;74.60;;;;;;5022575;28;20462;-43
2021/10/27 15:57:17;;;;;;;7.00;5.27;;;15.90;74.60;;;;;;5041923;28;20450;-43
2021/10/27 15:59:44;;;;;;;9.10;7.40;;;15.80;74.70;;;;;;5040696;28;20480;-43
2021/10/27 16:02:12;;;;;;;9.47;7.83;;;15.80;74.80;;;;;;5022279;28;21107;-43
2021/10/27 16:04:40;;;;;;;6.13;5.53;;;15.80;74.90;;;;;;5042232;28;20508;-43
2021/10/27 16:07:08;;;;;;;8.67;6.33;;;15.80;74.90;;;;;;5042003;28;20988;-43
2021/10/27 16:09:46;;;;;;;5.97;4.97;;;15.80;75.00;;;;;;5046058;28;20534;-43
2021/10/27 16:12:28;;;;;;;5.40;4.90;;;15.70;75.10;;;;;;5041077;28;20482;-43
2021/10/27 16:14:57;;;;;;;6.50;5.30;;;15.70;75.20;;;;;;5023469;28;20830;-43
2021/10/27 16:17:24;;;;;;;10.50;5.90;;;15.70;75.30;;;;;;5040192;28;20455;-43
2021/10/27 16:19:51;;;;;;;10.47;6.20;;;15.60;75.50;;;;;;5043209;28;20467;-43
2021/10/27 16:22:19;;;;;;;7.17;5.40;;;15.60;75.60;;;;;;5021697;28;20893;-43
2021/10/27 16:24:46;;;;;;;9.47;6.10;;;15.60;75.70;;;;;;5039405;28;20501;-43
2021/10/27 16:27:13;;;;;;;8.90;6.10;;;15.50;75.90;;;;;;5025057;28;20455;-43
2021/10/27 16:29:41;;;;;;;8.43;5.77;;;15.50;75.90;;;;;;5043571;28;20455;-43
2021/10/27 16:32:09;;;;;;;9.20;5.80;;;15.50;76.00;;;;;;5042503;28;20840;-43
2021/10/27 16:34:37;;;;;;;7.07;5.30;;;15.40;76.00;;;;;;5044378;28;20493;-43
2021/10/27 16:37:20;;;;;;;6.50;5.57;;;15.40;76.00;;;;;;5039352;28;20465;-43
2021/10/27 16:39:47;;;;;;;8.17;6.53;;;15.40;76.10;;;;;;5047844;28;20545;-43
2021/10/27 16:42:14;;;;;;;5.93;5.30;;;15.30;76.10;;;;;;5043775;28;21035;-43
2021/10/27 16:44:42;;;;;;;10.40;6.93;;;15.30;76.10;;;;;;5044875;28;20605;-43
2021/10/27 16:47:09;;;;;;;9.60;7.87;;;15.30;76.20;;;;;;5043838;28;20462;-43
2021/10/27 16:49:36;;;;;;;7.33;6.63;;;15.20;76.30;;;;;;5028966;28;20465;-43
2021/10/27 16:52:05;;;;;;;6.37;5.67;;;15.20;76.30;;;;;;5049728;28;20489;-43
2021/10/27 16:54:31;;;;;;;9.93;5.70;;;15.10;76.60;;;;;;5043970;28;20455;-43
2021/10/27 16:57:01;;;;;;;7.30;5.40;;;15.10;76.60;;;;;;5029582;28;20841;-42
2021/10/27 16:59:28;;;;;;;7.77;5.47;;;15.10;76.70;;;;;;5041871;28;20459;-42
2021/10/27 17:01:55;;;;;;;9.30;6.27;;;15.00;76.80;;;;;;5039177;28;20618;-42
2021/10/27 17:04:22;;;;;;;8.73;7.53;;;14.90;77.00;;;;;;5039978;28;20486;-42
2021/10/27 17:06:49;;;;;;;7.37;6.50;;;14.90;77.20;;;;;;5049998;28;20443;-42
2021/10/27 17:09:16;;;;;;;7.23;5.90;;;14.80;77.30;;;;;;5026568;28;20463;-42
2021/10/27 17:11:43;;;;;;;18.20;6.87;;;14.80;77.50;;;;;;5045118;28;21609;-42
2021/10/27 17:14:10;;;;;;;8.90;6.43;;;14.70;77.70;;;;;;5043915;28;20955;-42
2021/10/27 17:16:36;;;;;;;10.60;7.87;;;14.60;77.90;;;;;;5025858;28;20463;-42
2021/10/27 17:19:03;;;;;;;8.80;7.60;;;14.60;78.00;;;;;;5042760;28;20466;-42
2021/10/27 17:21:31;;;;;;;8.70;7.80;;;14.50;78.10;;;;;;5042278;28;20462;-42
2021/10/27 17:24:01;;;;;;;10.20;8.17;;;14.50;78.20;;;;;;5043508;28;20458;-42
2021/10/27 17:26:28;;;;;;;12.43;7.90;;;14.50;78.40;;;;;;5046782;28;20482;-42
2021/10/27 17:28:55;;;;;;;14.90;8.67;;;14.40;78.40;;;;;;5022947;28;20460;-42
2021/10/27 17:31:22;;;;;;;8.03;7.30;;;14.40;78.50;;;;;;5027495;28;20847;-42
2021/10/27 17:33:49;;;;;;;13.87;7.80;;;14.30;78.60;;;;;;5040948;28;21605;-43
2021/10/27 17:36:16;;;;;;;10.00;7.77;;;14.30;78.90;;;;;;5049355;28;20458;-43
2021/10/27 17:38:44;;;;;;;12.97;8.30;;;14.10;79.10;;;;;;5028382;28;20462;-43
2021/10/27 17:41:12;;;;;;;10.37;7.40;;;14.10;79.30;;;;;;5042021;28;20467;-43